sensor_id;sensor_type;location;lat;lon;timestamp;temperature;humidity
27573;DHT22;15009;53.082;8.768;2022-09-09T00:03:11;15.20;99.90
27573;DHT22;15009;53.082;8.768;2022-09-09T00:09:21;15.20;99.90
27573;DHT22;15009;53.082;8.768;2022-09-09T00:12:32;15.20;99.90
27573;DHT22;15009;53.082;8.768;2022-09-09T00:15:54;15.20;99.90
27573;DHT22;15009;53.082;8.768;2022-09-09T00:19:12;15.10;99.90
27573;DHT22;15009;53.082;8.768;2022-09-09T00:22:18;15.20;99.90
27573;DHT22;15009;53.082;8.768;2022-09-09T00:25:28;15.10;99.90
27573;DHT22;15009;53.082;8.768;2022-09-09T00:28:33;15.10;99.90
27573;DHT22;15009;53.082;8.768;2022-09-09T00:31:36;15.10;99.90
27573;DHT22;15009;53.082;8.768;2022-09-09T00:34:51;15.10;99.90
27573;DHT22;15009;53.082;8.768;2022-09-09T00:38:00;15.00;99.90
27573;DHT22;15009;53.082;8.768;2022-09-09T00:50:53;15.00;99.90
27573;DHT22;15009;53.082;8.768;2022-09-09T01:06:37;14.90;99.90
27573;DHT22;15009;53.082;8.768;2022-09-09T01:09:58;14.90;99.90
27573;DHT22;15009;53.082;8.768;2022-09-09T01:13:04;14.90;99.90
27573;DHT22;15009;53.082;8.768;2022-09-09T01:16:10;14.90;99.90
27573;DHT22;15009;53.082;8.768;2022-09-09T01:19:24;14.90;99.90
27573;DHT22;15009;53.082;8.768;2022-09-09T01:28:47;14.80;99.90
27573;DHT22;15009;53.082;8.768;2022-09-09T01:31:55;14.80;99.90
27573;DHT22;15009;53.082;8.768;2022-09-09T01:34:56;14.80;99.90
27573;DHT22;15009;53.082;8.768;2022-09-09T01:37:57;14.80;99.90
27573;DHT22;15009;53.082;8.768;2022-09-09T01:40:58;14.80;99.90
27573;DHT22;15009;53.082;8.768;2022-09-09T01:43:59;14.70;99.90
27573;DHT22;15009;53.082;8.768;2022-09-09T01:47:00;14.70;99.90
27573;DHT22;15009;53.082;8.768;2022-09-09T01:50:01;14.70;99.90
27573;DHT22;15009;53.082;8.768;2022-09-09T01:53:03;14.70;99.90
27573;DHT22;15009;53.082;8.768;2022-09-09T01:56:22;14.60;99.90
27573;DHT22;15009;53.082;8.768;2022-09-09T02:08:50;14.60;99.90
27573;DHT22;15009;53.082;8.768;2022-09-09T02:11:58;14.50;99.90
27573;DHT22;15009;53.082;8.768;2022-09-09T02:15:05;14.50;99.90
27573;DHT22;15009;53.082;8.768;2022-09-09T02:18:09;14.60;99.90
27573;DHT22;15009;53.082;8.768;2022-09-09T02:21:12;14.50;99.90
27573;DHT22;15009;53.082;8.768;2022-09-09T02:24:16;14.40;99.90
27573;DHT22;15009;53.082;8.768;2022-09-09T02:27:17;14.40;99.90
27573;DHT22;15009;53.082;8.768;2022-09-09T02:30:19;14.40;99.90
27573;DHT22;15009;53.082;8.768;2022-09-09T02:33:26;14.40;99.90
27573;DHT22;15009;53.082;8.768;2022-09-09T02:36:30;14.40;99.90
27573;DHT22;15009;53.082;8.768;2022-09-09T02:39:33;14.40;99.90
27573;DHT22;15009;53.082;8.768;2022-09-09T02:42:48;14.30;99.90
27573;DHT22;15009;53.082;8.768;2022-09-09T02:49:16;14.30;99.90
27573;DHT22;15009;53.082;8.768;2022-09-09T02:52:30;14.30;99.90
27573;DHT22;15009;53.082;8.768;2022-09-09T02:58:45;14.30;99.90
27573;DHT22;15009;53.082;8.768;2022-09-09T03:01:46;14.20;99.90
27573;DHT22;15009;53.082;8.768;2022-09-09T03:04:47;14.20;99.90
27573;DHT22;15009;53.082;8.768;2022-09-09T03:07:51;14.20;99.90
27573;DHT22;15009;53.082;8.768;2022-09-09T03:10:51;14.20;99.90
27573;DHT22;15009;53.082;8.768;2022-09-09T03:13:55;14.20;99.90
27573;DHT22;15009;53.082;8.768;2022-09-09T03:16:56;14.20;99.90
27573;DHT22;15009;53.082;8.768;2022-09-09T03:20:02;14.20;99.90
27573;DHT22;15009;53.082;8.768;2022-09-09T03:23:03;14.30;99.90
27573;DHT22;15009;53.082;8.768;2022-09-09T03:26:04;14.30;99.90
27573;DHT22;15009;53.082;8.768;2022-09-09T03:29:04;14.50;99.90
27573;DHT22;15009;53.082;8.768;2022-09-09T03:32:08;14.50;99.90
27573;DHT22;15009;53.082;8.768;2022-09-09T03:35:11;14.50;99.90
27573;DHT22;15009;53.082;8.768;2022-09-09T03:38:11;14.50;99.90
27573;DHT22;15009;53.082;8.768;2022-09-09T03:41:12;14.50;99.90
27573;DHT22;15009;53.082;8.768;2022-09-09T03:44:13;14.50;99.90
27573;DHT22;15009;53.082;8.768;2022-09-09T03:47:13;14.60;99.90
27573;DHT22;15009;53.082;8.768;2022-09-09T03:50:14;14.60;99.90
27573;DHT22;15009;53.082;8.768;2022-09-09T03:53:16;14.60;99.90
27573;DHT22;15009;53.082;8.768;2022-09-09T03:56:17;14.70;99.90
27573;DHT22;15009;53.082;8.768;2022-09-09T03:59:18;14.60;99.90
27573;DHT22;15009;53.082;8.768;2022-09-09T04:02:18;14.70;99.90
27573;DHT22;15009;53.082;8.768;2022-09-09T04:05:19;14.60;99.90
27573;DHT22;15009;53.082;8.768;2022-09-09T04:08:20;14.60;99.90
27573;DHT22;15009;53.082;8.768;2022-09-09T04:11:21;14.60;99.90
27573;DHT22;15009;53.082;8.768;2022-09-09T04:14:22;14.70;99.90
27573;DHT22;15009;53.082;8.768;2022-09-09T04:17:22;14.70;99.90
27573;DHT22;15009;53.082;8.768;2022-09-09T04:20:23;14.70;99.90
27573;DHT22;15009;53.082;8.768;2022-09-09T04:23:25;14.70;99.90
27573;DHT22;15009;53.082;8.768;2022-09-09T04:26:27;14.70;99.90
27573;DHT22;15009;53.082;8.768;2022-09-09T04:29:28;14.70;99.90
27573;DHT22;15009;53.082;8.768;2022-09-09T04:32:28;14.80;99.90
27573;DHT22;15009;53.082;8.768;2022-09-09T04:35:29;14.80;99.90
27573;DHT22;15009;53.082;8.768;2022-09-09T04:38:29;14.80;99.90
27573;DHT22;15009;53.082;8.768;2022-09-09T04:41:30;14.80;99.90
27573;DHT22;15009;53.082;8.768;2022-09-09T04:44:31;14.80;99.90
27573;DHT22;15009;53.082;8.768;2022-09-09T04:47:33;14.80;99.90
27573;DHT22;15009;53.082;8.768;2022-09-09T04:50:35;14.90;99.90
27573;DHT22;15009;53.082;8.768;2022-09-09T04:53:36;14.80;99.90
27573;DHT22;15009;53.082;8.768;2022-09-09T04:56:36;14.80;99.90
27573;DHT22;15009;53.082;8.768;2022-09-09T04:59:37;14.80;99.90
27573;DHT22;15009;53.082;8.768;2022-09-09T05:02:37;14.80;99.90
27573;DHT22;15009;53.082;8.768;2022-09-09T05:05:38;14.70;99.90
27573;DHT22;15009;53.082;8.768;2022-09-09T05:08:41;14.60;99.90
27573;DHT22;15009;53.082;8.768;2022-09-09T05:11:41;14.50;99.90
27573;DHT22;15009;53.082;8.768;2022-09-09T05:14:43;14.50;99.90
27573;DHT22;15009;53.082;8.768;2022-09-09T05:17:44;14.40;99.90
27573;DHT22;15009;53.082;8.768;2022-09-09T05:20:44;14.40;99.90
27573;DHT22;15009;53.082;8.768;2022-09-09T05:23:45;14.50;99.90
27573;DHT22;15009;53.082;8.768;2022-09-09T05:26:46;14.60;99.90
27573;DHT22;15009;53.082;8.768;2022-09-09T05:29:47;14.70;99.90
27573;DHT22;15009;53.082;8.768;2022-09-09T05:32:48;14.70;99.90
27573;DHT22;15009;53.082;8.768;2022-09-09T05:36:02;14.80;99.90
27573;DHT22;15009;53.082;8.768;2022-09-09T05:39:03;15.00;99.90
27573;DHT22;15009;53.082;8.768;2022-09-09T05:42:05;15.10;99.90
27573;DHT22;15009;53.082;8.768;2022-09-09T05:45:07;15.10;99.90
27573;DHT22;15009;53.082;8.768;2022-09-09T05:48:08;15.20;99.90
27573;DHT22;15009;53.082;8.768;2022-09-09T05:51:11;15.30;99.90
27573;DHT22;15009;53.082;8.768;2022-09-09T05:54:18;15.50;99.90
27573;DHT22;15009;53.082;8.768;2022-09-09T05:57:18;15.60;99.90
27573;DHT22;15009;53.082;8.768;2022-09-09T06:00:19;15.50;99.90
27573;DHT22;15009;53.082;8.768;2022-09-09T06:03:21;15.50;99.90
27573;DHT22;15009;53.082;8.768;2022-09-09T06:06:31;15.60;99.90
27573;DHT22;15009;53.082;8.768;2022-09-09T06:09:33;15.60;99.90
27573;DHT22;15009;53.082;8.768;2022-09-09T06:12:34;15.80;99.90
27573;DHT22;15009;53.082;8.768;2022-09-09T06:15:34;16.00;99.90
27573;DHT22;15009;53.082;8.768;2022-09-09T06:18:35;16.00;99.90
27573;DHT22;15009;53.082;8.768;2022-09-09T06:21:37;16.10;99.90
27573;DHT22;15009;53.082;8.768;2022-09-09T06:24:38;16.10;99.90
27573;DHT22;15009;53.082;8.768;2022-09-09T06:27:38;16.20;99.90
27573;DHT22;15009;53.082;8.768;2022-09-09T06:30:39;16.30;99.90
27573;DHT22;15009;53.082;8.768;2022-09-09T06:33:41;16.30;99.90
27573;DHT22;15009;53.082;8.768;2022-09-09T06:36:42;16.40;99.90
27573;DHT22;15009;53.082;8.768;2022-09-09T06:39:43;16.40;99.90
27573;DHT22;15009;53.082;8.768;2022-09-09T06:42:44;16.40;99.90
27573;DHT22;15009;53.082;8.768;2022-09-09T06:45:55;16.30;99.90
27573;DHT22;15009;53.082;8.768;2022-09-09T06:48:57;16.30;99.90
27573;DHT22;15009;53.082;8.768;2022-09-09T06:52:00;16.20;99.90
27573;DHT22;15009;53.082;8.768;2022-09-09T06:55:00;16.20;99.90
27573;DHT22;15009;53.082;8.768;2022-09-09T06:58:01;16.30;99.90
27573;DHT22;15009;53.082;8.768;2022-09-09T07:01:06;16.40;99.90
27573;DHT22;15009;53.082;8.768;2022-09-09T07:04:07;16.60;99.90
27573;DHT22;15009;53.082;8.768;2022-09-09T07:07:09;17.20;99.90
27573;DHT22;15009;53.082;8.768;2022-09-09T07:10:12;17.60;99.90
27573;DHT22;15009;53.082;8.768;2022-09-09T07:13:13;18.00;99.90
27573;DHT22;15009;53.082;8.768;2022-09-09T07:16:18;18.40;99.90
27573;DHT22;15009;53.082;8.768;2022-09-09T07:19:19;18.90;99.90
27573;DHT22;15009;53.082;8.768;2022-09-09T07:22:19;20.70;99.90
27573;DHT22;15009;53.082;8.768;2022-09-09T07:25:20;22.80;99.90
27573;DHT22;15009;53.082;8.768;2022-09-09T07:28:22;24.80;99.90
27573;DHT22;15009;53.082;8.768;2022-09-09T07:31:35;26.40;99.90
27573;DHT22;15009;53.082;8.768;2022-09-09T07:34:36;27.40;99.90
27573;DHT22;15009;53.082;8.768;2022-09-09T07:37:37;28.00;99.90
27573;DHT22;15009;53.082;8.768;2022-09-09T07:40:38;28.60;99.90
27573;DHT22;15009;53.082;8.768;2022-09-09T07:43:41;28.80;99.90
27573;DHT22;15009;53.082;8.768;2022-09-09T07:46:42;29.40;99.90
27573;DHT22;15009;53.082;8.768;2022-09-09T07:49:43;29.40;99.90
27573;DHT22;15009;53.082;8.768;2022-09-09T07:52:46;29.40;99.90
27573;DHT22;15009;53.082;8.768;2022-09-09T07:55:47;27.50;99.90
27573;DHT22;15009;53.082;8.768;2022-09-09T07:58:47;25.50;99.90
27573;DHT22;15009;53.082;8.768;2022-09-09T08:01:50;24.00;99.90
27573;DHT22;15009;53.082;8.768;2022-09-09T08:04:53;22.60;99.90
27573;DHT22;15009;53.082;8.768;2022-09-09T08:07:54;23.10;99.90
27573;DHT22;15009;53.082;8.768;2022-09-09T08:11:04;25.10;99.90
27573;DHT22;15009;53.082;8.768;2022-09-09T08:14:06;25.00;99.90
27573;DHT22;15009;53.082;8.768;2022-09-09T08:17:08;25.00;99.90
27573;DHT22;15009;53.082;8.768;2022-09-09T08:20:09;25.50;99.90
27573;DHT22;15009;53.082;8.768;2022-09-09T08:23:09;25.20;99.90
27573;DHT22;15009;53.082;8.768;2022-09-09T08:26:13;24.40;99.90
27573;DHT22;15009;53.082;8.768;2022-09-09T08:29:14;25.20;99.90
27573;DHT22;15009;53.082;8.768;2022-09-09T08:32:15;25.80;99.90
27573;DHT22;15009;53.082;8.768;2022-09-09T08:35:16;25.50;99.90
27573;DHT22;15009;53.082;8.768;2022-09-09T08:38:17;25.80;99.90
27573;DHT22;15009;53.082;8.768;2022-09-09T08:41:39;25.30;99.90
27573;DHT22;15009;53.082;8.768;2022-09-09T08:44:45;23.90;99.90
27573;DHT22;15009;53.082;8.768;2022-09-09T08:48:11;24.20;99.90
27573;DHT22;15009;53.082;8.768;2022-09-09T08:51:14;24.00;99.90
27573;DHT22;15009;53.082;8.768;2022-09-09T08:54:15;23.60;99.90
27573;DHT22;15009;53.082;8.768;2022-09-09T08:57:24;22.90;99.90
27573;DHT22;15009;53.082;8.768;2022-09-09T09:00:57;22.80;99.90
27573;DHT22;15009;53.082;8.768;2022-09-09T09:04:14;24.40;99.90
27573;DHT22;15009;53.082;8.768;2022-09-09T09:13:54;24.40;99.90
27573;DHT22;15009;53.082;8.768;2022-09-09T09:20:00;24.60;99.90
27573;DHT22;15009;53.082;8.768;2022-09-09T09:23:02;24.30;99.90
27573;DHT22;15009;53.082;8.768;2022-09-09T09:26:07;24.00;99.90
27573;DHT22;15009;53.082;8.768;2022-09-09T09:29:15;24.30;99.90
27573;DHT22;15009;53.082;8.768;2022-09-09T09:32:18;24.60;99.90
27573;DHT22;15009;53.082;8.768;2022-09-09T09:35:20;25.10;99.90
27573;DHT22;15009;53.082;8.768;2022-09-09T09:38:23;25.10;99.90
27573;DHT22;15009;53.082;8.768;2022-09-09T09:41:38;24.50;99.90
27573;DHT22;15009;53.082;8.768;2022-09-09T09:44:41;23.60;99.90
27573;DHT22;15009;53.082;8.768;2022-09-09T09:47:42;23.20;99.90
27573;DHT22;15009;53.082;8.768;2022-09-09T09:51:15;22.80;99.90
27573;DHT22;15009;53.082;8.768;2022-09-09T09:54:30;22.40;99.90
27573;DHT22;15009;53.082;8.768;2022-09-09T09:57:33;22.20;99.90
27573;DHT22;15009;53.082;8.768;2022-09-09T10:00:35;22.00;99.90
27573;DHT22;15009;53.082;8.768;2022-09-09T10:03:36;21.90;99.90
27573;DHT22;15009;53.082;8.768;2022-09-09T10:06:39;22.20;99.90
27573;DHT22;15009;53.082;8.768;2022-09-09T10:09:41;23.20;99.90
27573;DHT22;15009;53.082;8.768;2022-09-09T10:12:55;23.00;99.90
27573;DHT22;15009;53.082;8.768;2022-09-09T10:19:32;23.30;99.90
27573;DHT22;15009;53.082;8.768;2022-09-09T10:22:34;23.70;99.90
27573;DHT22;15009;53.082;8.768;2022-09-09T10:25:58;24.00;99.90
27573;DHT22;15009;53.082;8.768;2022-09-09T10:39:38;23.10;99.90
27573;DHT22;15009;53.082;8.768;2022-09-09T10:42:41;23.40;99.90
27573;DHT22;15009;53.082;8.768;2022-09-09T10:46:06;23.40;99.90
27573;DHT22;15009;53.082;8.768;2022-09-09T10:56:16;23.10;99.90
27573;DHT22;15009;53.082;8.768;2022-09-09T10:59:19;22.90;99.90
27573;DHT22;15009;53.082;8.768;2022-09-09T11:02:30;22.70;99.90
27573;DHT22;15009;53.082;8.768;2022-09-09T11:05:41;22.70;99.90
27573;DHT22;15009;53.082;8.768;2022-09-09T11:08:42;22.40;99.90
27573;DHT22;15009;53.082;8.768;2022-09-09T11:14:59;22.40;99.90
27573;DHT22;15009;53.082;8.768;2022-09-09T11:18:04;22.80;99.90
27573;DHT22;15009;53.082;8.768;2022-09-09T11:21:15;23.20;99.90
27573;DHT22;15009;53.082;8.768;2022-09-09T11:24:22;23.40;99.90
27573;DHT22;15009;53.082;8.768;2022-09-09T11:34:38;23.70;99.90
27573;DHT22;15009;53.082;8.768;2022-09-09T11:38:11;23.70;99.90
27573;DHT22;15009;53.082;8.768;2022-09-09T11:41:15;23.60;99.90
27573;DHT22;15009;53.082;8.768;2022-09-09T11:44:28;23.30;99.90
27573;DHT22;15009;53.082;8.768;2022-09-09T11:47:30;22.80;99.90
27573;DHT22;15009;53.082;8.768;2022-09-09T11:50:32;22.60;99.90
27573;DHT22;15009;53.082;8.768;2022-09-09T11:53:36;22.50;99.90
27573;DHT22;15009;53.082;8.768;2022-09-09T11:56:48;22.20;99.90
27573;DHT22;15009;53.082;8.768;2022-09-09T11:59:52;21.70;99.90
27573;DHT22;15009;53.082;8.768;2022-09-09T12:02:52;21.70;99.90
27573;DHT22;15009;53.082;8.768;2022-09-09T12:05:53;21.50;99.90
27573;DHT22;15009;53.082;8.768;2022-09-09T12:09:06;21.10;99.90
27573;DHT22;15009;53.082;8.768;2022-09-09T12:18:20;20.20;99.90
27573;DHT22;15009;53.082;8.768;2022-09-09T12:24:54;19.40;99.90
27573;DHT22;15009;53.082;8.768;2022-09-09T12:28:09;19.20;99.90
27573;DHT22;15009;53.082;8.768;2022-09-09T12:31:29;18.90;99.90
27573;DHT22;15009;53.082;8.768;2022-09-09T12:37:45;18.30;99.90
27573;DHT22;15009;53.082;8.768;2022-09-09T12:40:58;18.40;99.90
27573;DHT22;15009;53.082;8.768;2022-09-09T12:44:09;18.60;99.90
27573;DHT22;15009;53.082;8.768;2022-09-09T12:47:11;18.90;99.90
27573;DHT22;15009;53.082;8.768;2022-09-09T12:50:30;19.20;99.90
27573;DHT22;15009;53.082;8.768;2022-09-09T12:53:36;19.50;99.90
27573;DHT22;15009;53.082;8.768;2022-09-09T12:56:37;19.70;99.90
27573;DHT22;15009;53.082;8.768;2022-09-09T12:59:41;19.90;99.90
27573;DHT22;15009;53.082;8.768;2022-09-09T13:02:51;19.90;99.90
27573;DHT22;15009;53.082;8.768;2022-09-09T13:05:57;20.10;99.90
27573;DHT22;15009;53.082;8.768;2022-09-09T13:09:01;20.10;99.90
27573;DHT22;15009;53.082;8.768;2022-09-09T13:12:03;20.30;99.90
27573;DHT22;15009;53.082;8.768;2022-09-09T13:15:12;20.20;99.90
27573;DHT22;15009;53.082;8.768;2022-09-09T13:18:14;20.20;99.90
27573;DHT22;15009;53.082;8.768;2022-09-09T13:21:16;20.30;99.90
27573;DHT22;15009;53.082;8.768;2022-09-09T13:24:35;20.20;99.90
27573;DHT22;15009;53.082;8.768;2022-09-09T13:27:41;20.40;99.90
27573;DHT22;15009;53.082;8.768;2022-09-09T13:30:59;20.70;99.90
27573;DHT22;15009;53.082;8.768;2022-09-09T13:34:11;20.70;99.90
27573;DHT22;15009;53.082;8.768;2022-09-09T13:37:29;20.90;99.90
27573;DHT22;15009;53.082;8.768;2022-09-09T13:40:31;20.70;99.90
27573;DHT22;15009;53.082;8.768;2022-09-09T13:43:38;20.80;99.90
27573;DHT22;15009;53.082;8.768;2022-09-09T13:46:42;20.80;99.90
27573;DHT22;15009;53.082;8.768;2022-09-09T13:49:43;21.00;99.90
27573;DHT22;15009;53.082;8.768;2022-09-09T13:52:43;21.00;99.90
27573;DHT22;15009;53.082;8.768;2022-09-09T13:55:44;21.10;99.90
27573;DHT22;15009;53.082;8.768;2022-09-09T13:58:44;21.20;99.90
27573;DHT22;15009;53.082;8.768;2022-09-09T14:01:46;21.10;99.90
27573;DHT22;15009;53.082;8.768;2022-09-09T14:04:46;20.90;99.90
27573;DHT22;15009;53.082;8.768;2022-09-09T14:07:51;20.70;99.90
27573;DHT22;15009;53.082;8.768;2022-09-09T14:10:51;20.60;99.90
27573;DHT22;15009;53.082;8.768;2022-09-09T14:13:52;20.60;99.90
27573;DHT22;15009;53.082;8.768;2022-09-09T14:16:53;20.40;99.90
27573;DHT22;15009;53.082;8.768;2022-09-09T14:19:53;20.10;99.90
27573;DHT22;15009;53.082;8.768;2022-09-09T14:22:54;19.90;99.90
27573;DHT22;15009;53.082;8.768;2022-09-09T14:25:55;19.70;99.90
27573;DHT22;15009;53.082;8.768;2022-09-09T14:28:56;19.50;99.90
27573;DHT22;15009;53.082;8.768;2022-09-09T14:31:57;19.30;99.90
27573;DHT22;15009;53.082;8.768;2022-09-09T14:35:00;19.20;99.90
27573;DHT22;15009;53.082;8.768;2022-09-09T14:38:01;19.10;99.90
27573;DHT22;15009;53.082;8.768;2022-09-09T14:41:01;19.10;99.90
27573;DHT22;15009;53.082;8.768;2022-09-09T14:44:03;18.90;99.90
27573;DHT22;15009;53.082;8.768;2022-09-09T14:47:07;18.80;99.90
27573;DHT22;15009;53.082;8.768;2022-09-09T14:50:08;18.70;99.90
27573;DHT22;15009;53.082;8.768;2022-09-09T14:53:09;18.70;99.90
27573;DHT22;15009;53.082;8.768;2022-09-09T14:56:16;18.60;99.90
27573;DHT22;15009;53.082;8.768;2022-09-09T14:59:17;18.50;99.90
27573;DHT22;15009;53.082;8.768;2022-09-09T15:02:17;18.50;99.90
27573;DHT22;15009;53.082;8.768;2022-09-09T15:05:18;18.50;99.90
27573;DHT22;15009;53.082;8.768;2022-09-09T15:08:19;18.50;99.90
27573;DHT22;15009;53.082;8.768;2022-09-09T15:11:20;18.60;99.90
27573;DHT22;15009;53.082;8.768;2022-09-09T15:14:21;18.60;99.90
27573;DHT22;15009;53.082;8.768;2022-09-09T15:17:22;18.50;99.90
27573;DHT22;15009;53.082;8.768;2022-09-09T15:20:22;18.60;99.90
27573;DHT22;15009;53.082;8.768;2022-09-09T15:23:23;18.60;99.90
27573;DHT22;15009;53.082;8.768;2022-09-09T15:26:24;18.40;99.90
27573;DHT22;15009;53.082;8.768;2022-09-09T15:29:25;18.30;99.90
27573;DHT22;15009;53.082;8.768;2022-09-09T15:32:25;18.30;99.90
27573;DHT22;15009;53.082;8.768;2022-09-09T15:35:26;18.20;99.90
27573;DHT22;15009;53.082;8.768;2022-09-09T15:38:26;18.20;99.90
27573;DHT22;15009;53.082;8.768;2022-09-09T15:41:28;18.20;99.90
27573;DHT22;15009;53.082;8.768;2022-09-09T15:44:28;18.10;99.90
27573;DHT22;15009;53.082;8.768;2022-09-09T15:47:29;18.20;99.90
27573;DHT22;15009;53.082;8.768;2022-09-09T15:50:30;18.20;99.90
27573;DHT22;15009;53.082;8.768;2022-09-09T15:53:32;18.20;99.90
27573;DHT22;15009;53.082;8.768;2022-09-09T15:56:33;18.30;99.90
27573;DHT22;15009;53.082;8.768;2022-09-09T15:59:35;18.10;99.90
27573;DHT22;15009;53.082;8.768;2022-09-09T16:02:35;18.10;99.90
27573;DHT22;15009;53.082;8.768;2022-09-09T16:05:36;18.20;99.90
27573;DHT22;15009;53.082;8.768;2022-09-09T16:08:40;18.20;99.90
27573;DHT22;15009;53.082;8.768;2022-09-09T16:11:40;18.10;99.90
27573;DHT22;15009;53.082;8.768;2022-09-09T16:14:41;18.10;99.90
27573;DHT22;15009;53.082;8.768;2022-09-09T16:17:41;18.20;99.90
27573;DHT22;15009;53.082;8.768;2022-09-09T16:20:42;18.20;99.90
27573;DHT22;15009;53.082;8.768;2022-09-09T16:23:43;18.20;99.90
27573;DHT22;15009;53.082;8.768;2022-09-09T16:26:50;18.30;99.90
27573;DHT22;15009;53.082;8.768;2022-09-09T16:29:51;18.40;99.90
27573;DHT22;15009;53.082;8.768;2022-09-09T16:32:51;18.30;99.90
27573;DHT22;15009;53.082;8.768;2022-09-09T16:35:52;18.30;99.90
27573;DHT22;15009;53.082;8.768;2022-09-09T16:38:54;18.30;99.90
27573;DHT22;15009;53.082;8.768;2022-09-09T16:41:55;18.30;99.90
27573;DHT22;15009;53.082;8.768;2022-09-09T16:44:57;18.30;99.90
27573;DHT22;15009;53.082;8.768;2022-09-09T16:47:58;18.20;99.90
27573;DHT22;15009;53.082;8.768;2022-09-09T16:51:08;18.20;99.90
27573;DHT22;15009;53.082;8.768;2022-09-09T16:54:11;18.20;99.90
27573;DHT22;15009;53.082;8.768;2022-09-09T16:57:12;18.10;99.90
27573;DHT22;15009;53.082;8.768;2022-09-09T17:00:12;18.00;99.90
27573;DHT22;15009;53.082;8.768;2022-09-09T17:03:13;18.00;99.90
27573;DHT22;15009;53.082;8.768;2022-09-09T17:06:15;17.90;99.90
27573;DHT22;15009;53.082;8.768;2022-09-09T17:09:16;17.80;99.90
27573;DHT22;15009;53.082;8.768;2022-09-09T17:12:17;17.50;99.90
27573;DHT22;15009;53.082;8.768;2022-09-09T17:15:18;17.30;99.90
27573;DHT22;15009;53.082;8.768;2022-09-09T17:18:21;17.30;99.90
27573;DHT22;15009;53.082;8.768;2022-09-09T17:21:26;17.30;99.90
27573;DHT22;15009;53.082;8.768;2022-09-09T17:24:27;17.20;99.90
27573;DHT22;15009;53.082;8.768;2022-09-09T17:27:29;17.30;99.90
27573;DHT22;15009;53.082;8.768;2022-09-09T17:30:34;17.20;99.90
27573;DHT22;15009;53.082;8.768;2022-09-09T17:33:37;17.20;99.90
27573;DHT22;15009;53.082;8.768;2022-09-09T17:36:39;17.10;99.90
27573;DHT22;15009;53.082;8.768;2022-09-09T17:39:39;17.20;99.90
27573;DHT22;15009;53.082;8.768;2022-09-09T17:42:40;17.10;99.90
27573;DHT22;15009;53.082;8.768;2022-09-09T17:45:41;17.10;99.90
27573;DHT22;15009;53.082;8.768;2022-09-09T17:48:42;17.20;99.90
27573;DHT22;15009;53.082;8.768;2022-09-09T17:51:44;17.10;99.90
27573;DHT22;15009;53.082;8.768;2022-09-09T17:54:45;17.00;99.90
27573;DHT22;15009;53.082;8.768;2022-09-09T17:57:45;16.90;99.90
27573;DHT22;15009;53.082;8.768;2022-09-09T18:00:46;17.00;99.90
27573;DHT22;15009;53.082;8.768;2022-09-09T18:03:49;17.00;99.90
27573;DHT22;15009;53.082;8.768;2022-09-09T18:06:52;17.00;99.90
27573;DHT22;15009;53.082;8.768;2022-09-09T18:09:53;17.10;99.90
27573;DHT22;15009;53.082;8.768;2022-09-09T18:12:54;17.00;99.90
27573;DHT22;15009;53.082;8.768;2022-09-09T18:15:56;17.10;99.90
27573;DHT22;15009;53.082;8.768;2022-09-09T18:18:57;17.00;99.90
27573;DHT22;15009;53.082;8.768;2022-09-09T18:21:59;17.00;99.90
27573;DHT22;15009;53.082;8.768;2022-09-09T18:25:00;17.00;99.90
27573;DHT22;15009;53.082;8.768;2022-09-09T18:28:01;17.00;99.90
27573;DHT22;15009;53.082;8.768;2022-09-09T18:31:07;17.00;99.90
27573;DHT22;15009;53.082;8.768;2022-09-09T18:34:10;17.00;99.90
27573;DHT22;15009;53.082;8.768;2022-09-09T18:37:12;17.00;99.90
27573;DHT22;15009;53.082;8.768;2022-09-09T18:40:12;17.00;99.90
27573;DHT22;15009;53.082;8.768;2022-09-09T18:43:13;16.90;99.90
27573;DHT22;15009;53.082;8.768;2022-09-09T18:46:14;16.80;99.90
27573;DHT22;15009;53.082;8.768;2022-09-09T18:49:16;16.80;99.90
27573;DHT22;15009;53.082;8.768;2022-09-09T18:52:16;16.80;99.90
27573;DHT22;15009;53.082;8.768;2022-09-09T18:55:17;16.70;99.90
27573;DHT22;15009;53.082;8.768;2022-09-09T18:58:17;16.80;99.90
27573;DHT22;15009;53.082;8.768;2022-09-09T19:01:18;16.80;99.90
27573;DHT22;15009;53.082;8.768;2022-09-09T19:04:21;16.90;99.90
27573;DHT22;15009;53.082;8.768;2022-09-09T19:07:22;16.90;99.90
27573;DHT22;15009;53.082;8.768;2022-09-09T19:10:23;16.70;99.90
27573;DHT22;15009;53.082;8.768;2022-09-09T19:13:23;16.70;99.90
27573;DHT22;15009;53.082;8.768;2022-09-09T19:16:26;16.60;99.90
27573;DHT22;15009;53.082;8.768;2022-09-09T19:19:30;16.60;99.90
27573;DHT22;15009;53.082;8.768;2022-09-09T19:22:31;16.60;99.90
27573;DHT22;15009;53.082;8.768;2022-09-09T19:25:35;16.70;99.90
27573;DHT22;15009;53.082;8.768;2022-09-09T19:28:39;16.70;99.90
27573;DHT22;15009;53.082;8.768;2022-09-09T19:31:43;16.60;99.90
27573;DHT22;15009;53.082;8.768;2022-09-09T19:34:44;16.60;99.90
27573;DHT22;15009;53.082;8.768;2022-09-09T19:37:44;16.50;99.90
27573;DHT22;15009;53.082;8.768;2022-09-09T19:40:45;16.60;99.90
27573;DHT22;15009;53.082;8.768;2022-09-09T19:43:46;16.60;99.90
27573;DHT22;15009;53.082;8.768;2022-09-09T19:46:47;16.60;99.90
27573;DHT22;15009;53.082;8.768;2022-09-09T19:49:49;16.60;99.90
27573;DHT22;15009;53.082;8.768;2022-09-09T19:52:50;16.50;99.90
27573;DHT22;15009;53.082;8.768;2022-09-09T19:55:52;16.50;99.90
27573;DHT22;15009;53.082;8.768;2022-09-09T19:58:53;16.40;99.90
27573;DHT22;15009;53.082;8.768;2022-09-09T20:01:54;16.30;99.90
27573;DHT22;15009;53.082;8.768;2022-09-09T20:04:55;16.30;99.90
27573;DHT22;15009;53.082;8.768;2022-09-09T20:07:57;16.20;99.90
27573;DHT22;15009;53.082;8.768;2022-09-09T20:10:58;16.20;99.90
27573;DHT22;15009;53.082;8.768;2022-09-09T20:14:00;16.10;99.90
27573;DHT22;15009;53.082;8.768;2022-09-09T20:17:01;16.10;99.90
27573;DHT22;15009;53.082;8.768;2022-09-09T20:20:02;16.10;99.90
27573;DHT22;15009;53.082;8.768;2022-09-09T20:23:03;16.10;99.90
27573;DHT22;15009;53.082;8.768;2022-09-09T20:26:06;16.10;99.90
27573;DHT22;15009;53.082;8.768;2022-09-09T20:29:11;16.10;99.90
27573;DHT22;15009;53.082;8.768;2022-09-09T20:32:12;16.00;99.90
27573;DHT22;15009;53.082;8.768;2022-09-09T20:35:13;16.00;99.90
27573;DHT22;15009;53.082;8.768;2022-09-09T20:38:14;16.00;99.90
27573;DHT22;15009;53.082;8.768;2022-09-09T20:41:16;16.00;99.90
27573;DHT22;15009;53.082;8.768;2022-09-09T20:44:19;15.90;99.90
27573;DHT22;15009;53.082;8.768;2022-09-09T20:47:22;15.80;99.90
27573;DHT22;15009;53.082;8.768;2022-09-09T20:50:23;15.80;99.90
27573;DHT22;15009;53.082;8.768;2022-09-09T20:53:23;15.80;99.90
27573;DHT22;15009;53.082;8.768;2022-09-09T20:56:29;15.80;99.90
27573;DHT22;15009;53.082;8.768;2022-09-09T20:59:31;15.80;99.90
27573;DHT22;15009;53.082;8.768;2022-09-09T21:02:34;15.80;99.90